createdAt,value
2024-01-20T00:00:49.376Z,2.80
2024-01-20T00:03:18.277Z,2.80
2024-01-20T00:05:48.190Z,2.90
2024-01-20T00:08:16.861Z,2.80
2024-01-20T00:10:45.480Z,2.80
2024-01-20T00:13:14.606Z,2.80
2024-01-20T00:15:43.091Z,2.80
2024-01-20T00:18:11.980Z,2.80
2024-01-20T00:20:41.015Z,2.80
2024-01-20T00:23:10.980Z,2.80
2024-01-20T00:25:39.515Z,2.80
2024-01-20T00:28:08.022Z,2.80
2024-01-20T00:30:36.794Z,2.80
2024-01-20T00:33:08.223Z,2.80
2024-01-20T00:35:37.783Z,2.80
2024-01-20T00:38:06.289Z,2.80
2024-01-20T00:40:36.216Z,2.80
2024-01-20T00:43:05.225Z,2.80
2024-01-20T00:45:33.763Z,2.80
2024-01-20T00:48:02.225Z,2.80
2024-01-20T00:50:30.690Z,2.80
2024-01-20T00:53:01.542Z,2.80
2024-01-20T00:55:30.095Z,2.80
2024-01-20T00:58:00.193Z,2.80
2024-01-20T01:00:28.692Z,2.80
2024-01-20T01:02:57.192Z,2.80
2024-01-20T01:05:25.921Z,2.80
2024-01-20T01:07:54.344Z,2.90
2024-01-20T01:10:22.934Z,2.90
2024-01-20T01:12:51.554Z,2.90
2024-01-20T01:15:21.534Z,2.90
2024-01-20T01:17:52.644Z,2.90
2024-01-20T01:20:24.327Z,2.90
2024-01-20T01:22:53.730Z,2.90
2024-01-20T01:25:23.867Z,2.90
2024-01-20T01:27:52.256Z,2.90
2024-01-20T01:30:22.061Z,2.90
2024-01-20T01:32:50.421Z,2.90
2024-01-20T01:35:19.003Z,2.90
2024-01-20T01:37:50.440Z,2.90
2024-01-20T01:40:18.982Z,2.90
2024-01-20T01:42:47.472Z,2.90
2024-01-20T01:45:18.684Z,2.90
2024-01-20T01:47:48.665Z,2.90
2024-01-20T01:50:20.058Z,2.90
2024-01-20T01:52:49.515Z,2.90
2024-01-20T01:55:18.313Z,2.90
2024-01-20T01:57:47.715Z,2.90
2024-01-20T02:00:16.115Z,2.90
2024-01-20T02:02:44.550Z,2.80
2024-01-20T02:05:14.357Z,2.90
2024-01-20T02:07:44.673Z,2.80
2024-01-20T02:10:13.436Z,2.80
2024-01-20T02:12:44.367Z,2.80
2024-01-20T02:15:16.118Z,2.80
2024-01-20T02:17:54.550Z,2.90
2024-01-20T02:20:26.902Z,2.90
2024-01-20T02:22:56.752Z,2.80
2024-01-20T02:25:25.429Z,2.80
2024-01-20T02:27:53.875Z,2.90
2024-01-20T02:30:22.414Z,2.90
2024-01-20T02:32:50.949Z,2.90
2024-01-20T02:35:20.993Z,2.90
2024-01-20T02:37:49.519Z,2.90
2024-01-20T02:40:19.570Z,2.90
2024-01-20T02:42:48.041Z,2.90
2024-01-20T02:45:16.702Z,2.90
2024-01-20T02:47:45.265Z,2.90
2024-01-20T02:50:13.810Z,2.90
2024-01-20T02:52:42.198Z,2.90
2024-01-20T02:55:10.958Z,2.90
2024-01-20T02:57:40.855Z,2.90
2024-01-20T03:00:10.920Z,2.90
2024-01-20T03:02:39.529Z,2.90
2024-01-20T03:05:10.777Z,2.90
2024-01-20T03:07:39.397Z,2.90
2024-01-20T03:10:09.113Z,2.80
2024-01-20T03:12:37.748Z,2.90
2024-01-20T03:15:09.294Z,2.80
2024-01-20T03:17:40.053Z,2.80
2024-01-20T03:20:11.252Z,2.80
2024-01-20T03:22:39.809Z,2.80
2024-01-20T03:25:09.548Z,2.80
2024-01-20T03:27:38.105Z,2.80
2024-01-20T03:30:09.642Z,2.80
2024-01-20T03:32:38.162Z,2.80
2024-01-20T03:35:07.032Z,2.80
2024-01-20T03:37:37.530Z,2.90
2024-01-20T03:40:06.676Z,2.90
2024-01-20T03:42:35.238Z,2.90
2024-01-20T03:45:03.730Z,2.90
2024-01-20T03:47:34.499Z,2.80
2024-01-20T03:50:07.768Z,2.80
2024-01-20T03:52:36.326Z,2.90
2024-01-20T03:55:05.337Z,2.80
2024-01-20T03:57:33.811Z,2.80
2024-01-20T04:00:02.273Z,2.80
2024-01-20T04:02:34.615Z,2.80
2024-01-20T04:05:03.185Z,2.80
2024-01-20T04:07:31.674Z,2.80
2024-01-20T04:10:00.871Z,2.80
2024-01-20T04:12:29.369Z,2.70
2024-01-20T04:14:57.971Z,2.70
2024-01-20T04:17:26.649Z,2.70
2024-01-20T04:19:57.698Z,2.70
2024-01-20T04:22:26.662Z,2.70
2024-01-20T04:24:57.428Z,2.70
2024-01-20T04:27:28.326Z,2.70
2024-01-20T04:29:56.901Z,2.70
2024-01-20T04:32:28.671Z,2.70
2024-01-20T04:34:58.446Z,2.70
2024-01-20T04:37:26.954Z,2.70
2024-01-20T04:39:55.695Z,2.70
2024-01-20T04:42:24.180Z,2.60
2024-01-20T04:44:52.640Z,2.60
2024-01-20T04:47:21.107Z,2.60
2024-01-20T04:49:52.566Z,2.60
2024-01-20T04:52:22.525Z,2.70
2024-01-20T04:54:53.498Z,2.70
2024-01-20T04:57:22.633Z,2.70
2024-01-20T04:59:51.114Z,2.70
2024-01-20T05:02:19.500Z,2.70
2024-01-20T05:04:48.466Z,2.70
2024-01-20T05:07:16.916Z,2.70
2024-01-20T05:09:46.875Z,2.70
2024-01-20T05:12:15.376Z,2.70
2024-01-20T05:14:43.831Z,2.70
2024-01-20T05:17:12.539Z,2.70
2024-01-20T05:19:41.275Z,2.70
2024-01-20T05:22:12.431Z,2.80
2024-01-20T05:24:40.802Z,2.70
2024-01-20T05:27:11.755Z,2.70
2024-01-20T05:29:40.292Z,2.80
2024-01-20T05:32:08.883Z,2.70
2024-01-20T05:34:37.490Z,2.70
2024-01-20T05:37:08.236Z,2.70
2024-01-20T05:39:36.658Z,2.60
2024-01-20T05:42:05.677Z,2.70
2024-01-20T05:44:38.463Z,2.70
2024-01-20T05:47:07.050Z,2.70
2024-01-20T05:49:35.542Z,2.60
2024-01-20T05:52:04.018Z,2.60
2024-01-20T05:54:32.481Z,2.60
2024-01-20T05:57:01.205Z,2.60
2024-01-20T05:59:29.640Z,2.60
2024-01-20T06:01:59.560Z,2.60
2024-01-20T06:04:30.321Z,2.60
2024-01-20T06:06:58.776Z,2.60
2024-01-20T06:09:27.131Z,2.60
2024-01-20T06:11:55.589Z,2.60
2024-01-20T06:14:24.026Z,2.60
2024-01-20T06:16:52.431Z,2.60
2024-01-20T06:19:22.385Z,2.60
2024-01-20T06:21:53.336Z,2.60
2024-01-20T06:24:21.877Z,2.60
2024-01-20T06:26:50.317Z,2.60
2024-01-20T06:29:18.903Z,2.60
2024-01-20T06:31:47.416Z,2.60
2024-01-20T06:34:15.897Z,2.60
2024-01-20T06:36:45.677Z,2.60
2024-01-20T06:39:16.452Z,2.60
2024-01-20T06:41:47.244Z,2.60
2024-01-20T06:44:15.709Z,2.60
2024-01-20T06:46:45.144Z,2.60
2024-01-20T06:49:15.855Z,2.60
2024-01-20T06:51:46.188Z,2.60
2024-01-20T06:54:14.696Z,2.60
2024-01-20T06:56:43.498Z,2.60
2024-01-20T06:59:12.043Z,2.60
2024-01-20T07:01:40.610Z,2.60
2024-01-20T07:04:09.183Z,2.70
2024-01-20T07:06:37.763Z,2.60
2024-01-20T07:09:08.652Z,2.70
2024-01-20T07:11:37.433Z,2.70
2024-01-20T07:14:05.996Z,2.70
2024-01-20T07:16:34.557Z,2.70
2024-01-20T07:19:03.387Z,2.70
2024-01-20T07:21:32.371Z,2.70
2024-01-20T07:24:01.064Z,2.70
2024-01-20T07:26:31.237Z,2.80
2024-01-20T07:29:00.572Z,2.70
2024-01-20T07:31:29.140Z,2.80
2024-01-20T07:33:57.667Z,2.80
2024-01-20T07:36:26.152Z,2.70
2024-01-20T07:38:54.721Z,2.70
2024-01-20T07:41:23.145Z,2.70
2024-01-20T07:43:54.999Z,2.70
2024-01-20T07:46:23.686Z,2.70
2024-01-20T07:48:52.358Z,2.70
2024-01-20T07:51:20.969Z,2.70
2024-01-20T07:53:49.452Z,2.80
2024-01-20T07:56:17.979Z,2.80
2024-01-20T07:58:46.335Z,2.80
2024-01-20T08:01:17.870Z,2.80
2024-01-20T08:03:46.816Z,2.80
2024-01-20T08:06:15.508Z,2.80
2024-01-20T08:08:45.629Z,2.80
2024-01-20T08:11:14.444Z,2.80
2024-01-20T08:13:42.849Z,2.80
2024-01-20T08:16:11.433Z,2.80
2024-01-20T08:18:41.518Z,2.80
2024-01-20T08:21:10.119Z,2.80
2024-01-20T08:23:38.617Z,2.80
2024-01-20T08:26:07.253Z,2.80
2024-01-20T08:28:35.851Z,2.80
2024-01-20T08:31:06.837Z,2.80
2024-01-20T08:33:35.448Z,2.80
2024-01-20T08:36:05.849Z,2.80
2024-01-20T08:39:02.748Z,2.90
2024-01-20T08:41:36.871Z,2.80
2024-01-20T08:44:05.586Z,2.80
2024-01-20T08:46:34.089Z,2.80
2024-01-20T08:49:02.482Z,2.90
2024-01-20T08:51:32.464Z,2.90
2024-01-20T08:54:00.980Z,2.90
2024-01-20T08:56:29.471Z,2.90
2024-01-20T08:58:57.953Z,2.90
2024-01-20T09:01:26.596Z,2.90
2024-01-20T09:03:55.139Z,3.00
2024-01-20T09:06:23.700Z,3.00
2024-01-20T09:08:53.603Z,3.00
2024-01-20T09:11:22.230Z,3.00
2024-01-20T09:13:50.900Z,3.00
2024-01-20T09:16:19.881Z,3.00
2024-01-20T09:18:48.451Z,3.10
2024-01-20T09:21:16.945Z,3.10
2024-01-20T09:23:45.339Z,3.10
2024-01-20T09:26:15.501Z,3.10
2024-01-20T09:28:44.162Z,3.10
2024-01-20T09:31:13.129Z,3.10
2024-01-20T09:33:43.535Z,3.10
2024-01-20T09:36:14.289Z,3.10
2024-01-20T09:38:42.793Z,3.10
2024-01-20T09:41:12.004Z,3.10
2024-01-20T09:43:41.805Z,3.10
2024-01-20T09:46:10.882Z,3.10
2024-01-20T09:48:39.586Z,3.10
2024-01-20T09:51:09.593Z,3.10
2024-01-20T09:53:38.101Z,3.30
2024-01-20T09:56:07.136Z,3.50
2024-01-20T09:58:36.194Z,3.70
2024-01-20T10:01:07.152Z,3.60
2024-01-20T10:03:36.988Z,3.50
2024-01-20T10:06:06.405Z,3.40
2024-01-20T10:08:36.769Z,3.40
2024-01-20T10:11:09.039Z,3.40
2024-01-20T10:13:37.446Z,3.50
2024-01-20T10:16:08.422Z,3.60
2024-01-20T10:18:37.344Z,3.60
2024-01-20T10:21:07.130Z,3.70
2024-01-20T10:23:37.045Z,3.90
2024-01-20T10:26:07.076Z,4.10
2024-01-20T10:28:35.996Z,4.20
2024-01-20T10:31:12.109Z,4.30
2024-01-20T10:33:43.509Z,4.40
2024-01-20T10:36:14.873Z,4.60
2024-01-20T10:38:44.280Z,4.70
2024-01-20T10:41:15.748Z,4.80
2024-01-20T10:43:49.394Z,4.90
2024-01-20T10:46:23.930Z,5.00
2024-01-20T10:48:55.597Z,5.10
2024-01-20T10:51:27.368Z,5.10
2024-01-20T10:53:56.606Z,5.20
2024-01-20T10:56:25.790Z,5.20
2024-01-20T10:59:09.848Z,5.10
2024-01-20T11:01:40.780Z,5.20
2024-01-20T11:04:09.695Z,5.20
2024-01-20T11:06:42.471Z,5.20
2024-01-20T11:09:22.811Z,5.30
2024-01-20T11:12:02.716Z,5.40
2024-01-20T11:14:31.234Z,5.50
2024-01-20T11:17:12.937Z,5.60
2024-01-20T11:19:41.458Z,5.70
2024-01-20T11:22:34.295Z,5.80
2024-01-20T11:25:07.172Z,5.70
2024-01-20T11:27:45.963Z,5.70
2024-01-20T11:30:17.383Z,5.80
2024-01-20T11:32:47.568Z,5.90
2024-01-20T11:35:15.940Z,6.00
2024-01-20T11:37:45.043Z,6.10
2024-01-20T11:40:13.788Z,6.10
2024-01-20T11:42:42.329Z,6.10
2024-01-20T11:45:11.789Z,6.20
2024-01-20T11:47:40.621Z,6.20
2024-01-20T11:50:11.469Z,6.20
2024-01-20T11:52:39.904Z,6.20
2024-01-20T11:55:10.679Z,6.30
2024-01-20T11:57:39.215Z,6.30
2024-01-20T12:00:12.282Z,6.40
2024-01-20T12:02:46.708Z,6.50
2024-01-20T12:05:19.021Z,6.50
2024-01-20T12:07:48.372Z,6.60
2024-01-20T12:10:18.986Z,6.70
2024-01-20T12:12:47.515Z,6.80
2024-01-20T12:15:17.103Z,6.80
2024-01-20T12:17:45.695Z,6.90
2024-01-20T12:20:14.159Z,7.00
2024-01-20T12:22:43.975Z,7.00
2024-01-20T12:25:14.018Z,7.00
2024-01-20T12:27:43.522Z,7.00
2024-01-20T12:30:15.179Z,7.00
2024-01-20T12:32:43.794Z,7.00
2024-01-20T12:35:12.754Z,7.10
2024-01-20T12:37:41.524Z,7.10
2024-01-20T12:40:13.097Z,7.10
2024-01-20T12:42:41.989Z,7.10
2024-01-20T12:45:12.202Z,7.00
2024-01-20T12:47:40.831Z,7.00
2024-01-20T12:50:12.434Z,7.10
2024-01-20T12:52:43.684Z,7.00
2024-01-20T12:55:13.610Z,7.10
2024-01-20T12:57:42.160Z,7.00
2024-01-20T13:00:14.096Z,7.00
2024-01-20T13:02:42.620Z,7.00
2024-01-20T13:05:11.158Z,7.10
2024-01-20T13:07:39.737Z,7.00
2024-01-20T13:10:10.342Z,7.00
2024-01-20T13:12:40.186Z,7.00
2024-01-20T13:15:10.153Z,6.90
2024-01-20T13:17:42.324Z,6.90
2024-01-20T13:20:14.646Z,6.90
2024-01-20T13:22:43.067Z,6.90
2024-01-20T13:25:14.386Z,6.90
2024-01-20T13:27:44.368Z,6.90
2024-01-20T13:30:14.186Z,6.90
2024-01-20T13:32:42.849Z,6.90
2024-01-20T13:35:12.098Z,6.90
2024-01-20T13:37:40.512Z,6.80
2024-01-20T13:40:10.963Z,6.90
2024-01-20T13:42:43.870Z,6.80
2024-01-20T13:45:14.032Z,6.80
2024-01-20T13:47:45.220Z,6.80
2024-01-20T13:50:13.853Z,6.70
2024-01-20T13:52:44.833Z,6.70
2024-01-20T13:55:14.577Z,6.70
2024-01-20T13:57:44.654Z,6.70
2024-01-20T14:00:14.128Z,6.60
2024-01-20T14:02:45.633Z,6.60
2024-01-20T14:05:14.475Z,6.50
2024-01-20T14:07:42.970Z,6.50
2024-01-20T14:10:12.677Z,6.50
2024-01-20T14:12:45.962Z,6.50
2024-01-20T14:15:14.511Z,6.50
2024-01-20T14:17:42.997Z,6.30
2024-01-20T14:20:12.033Z,6.30
2024-01-20T14:22:41.632Z,6.20
2024-01-20T14:25:12.457Z,6.20
2024-01-20T14:27:41.008Z,6.20
2024-01-20T14:30:12.747Z,6.20
2024-01-20T14:32:41.332Z,6.30
2024-01-20T14:35:12.815Z,6.20
2024-01-20T14:37:41.371Z,6.20
2024-01-20T14:40:10.719Z,6.10
2024-01-20T14:42:39.200Z,6.20
2024-01-20T14:45:08.630Z,6.10
2024-01-20T14:47:38.679Z,6.20
2024-01-20T14:50:08.640Z,6.10
2024-01-20T14:52:39.470Z,6.10
2024-01-20T14:55:08.409Z,6.00
2024-01-20T14:57:36.866Z,5.90
2024-01-20T15:00:10.159Z,5.90
2024-01-20T15:02:40.214Z,5.90
2024-01-20T15:05:09.866Z,5.80
2024-01-20T15:07:40.684Z,5.80
2024-01-20T15:10:09.860Z,5.90
2024-01-20T15:12:38.534Z,5.80
2024-01-20T15:15:07.959Z,5.80
2024-01-20T15:17:40.278Z,5.60
2024-01-20T15:20:11.463Z,5.60
2024-01-20T15:22:41.837Z,5.50
2024-01-20T15:25:14.029Z,5.50
2024-01-20T15:27:42.412Z,5.50
2024-01-20T15:30:17.138Z,5.50
2024-01-20T15:32:49.478Z,5.50
2024-01-20T15:35:20.119Z,5.40
2024-01-20T15:37:48.496Z,5.30
2024-01-20T15:40:19.552Z,5.30
2024-01-20T15:42:50.383Z,5.30
2024-01-20T15:45:18.918Z,5.30
2024-01-20T15:47:47.744Z,5.30
2024-01-20T15:50:17.825Z,5.20
2024-01-20T15:52:46.314Z,5.20
2024-01-20T15:55:14.671Z,5.10
2024-01-20T15:57:43.122Z,5.10
2024-01-20T16:00:12.535Z,5.10
2024-01-20T16:02:40.950Z,5.00
2024-01-20T16:05:12.679Z,4.90
2024-01-20T16:07:42.862Z,4.90
2024-01-20T16:10:16.001Z,4.90
2024-01-20T16:12:44.533Z,4.90
2024-01-20T16:15:13.208Z,4.90
2024-01-20T16:17:42.752Z,4.80
2024-01-20T16:20:12.280Z,4.80
2024-01-20T16:22:42.033Z,4.80
2024-01-20T16:25:10.483Z,4.70
2024-01-20T16:27:41.579Z,4.70
2024-01-20T16:30:10.701Z,4.70
2024-01-20T16:32:41.667Z,4.70
2024-01-20T16:35:12.441Z,4.60
2024-01-20T16:37:46.672Z,4.60
2024-01-20T16:40:17.546Z,4.50
2024-01-20T16:42:46.006Z,4.50
2024-01-20T16:45:17.540Z,4.50
2024-01-20T16:47:46.077Z,4.50
2024-01-20T16:50:14.566Z,4.50
2024-01-20T16:52:44.400Z,4.50
2024-01-20T16:55:15.197Z,4.50
2024-01-20T16:57:44.530Z,4.40
2024-01-20T17:00:14.418Z,4.40
2024-01-20T17:02:42.990Z,4.30
2024-01-20T17:05:11.763Z,4.30
2024-01-20T17:07:40.218Z,4.30
2024-01-20T17:10:11.224Z,4.20
2024-01-20T17:12:42.389Z,4.20
2024-01-20T17:15:12.034Z,4.20
2024-01-20T17:17:40.485Z,4.10
2024-01-20T17:20:09.921Z,4.10
2024-01-20T17:22:38.735Z,4.20
2024-01-20T17:25:09.034Z,4.30
2024-01-20T17:27:39.901Z,4.20
2024-01-20T17:30:09.601Z,4.10
2024-01-20T17:32:40.908Z,4.10
2024-01-20T17:35:10.567Z,4.00
2024-01-20T17:37:39.452Z,4.00
2024-01-20T17:40:09.368Z,4.00
2024-01-20T17:42:39.387Z,3.90
2024-01-20T17:45:11.453Z,3.90
2024-01-20T17:47:44.756Z,3.80
2024-01-20T17:50:14.030Z,3.70
2024-01-20T17:52:42.451Z,3.70
2024-01-20T17:55:11.153Z,3.60
2024-01-20T17:57:41.024Z,3.50
2024-01-20T18:00:13.209Z,3.50
2024-01-20T18:02:42.676Z,3.40
2024-01-20T18:05:14.053Z,3.40
2024-01-20T18:07:44.922Z,3.30
2024-01-20T18:10:15.078Z,3.30
2024-01-20T18:12:46.272Z,3.20
2024-01-20T18:15:14.909Z,3.20
2024-01-20T18:17:44.007Z,3.20
2024-01-20T18:20:15.201Z,3.20
2024-01-20T18:22:43.633Z,3.20
2024-01-20T18:25:12.431Z,3.20
2024-01-20T18:27:41.211Z,3.20
2024-01-20T18:30:11.841Z,3.20
2024-01-20T18:32:40.426Z,3.20
2024-01-20T18:35:12.980Z,3.20
2024-01-20T18:37:43.987Z,3.10
2024-01-20T18:40:14.143Z,3.10
2024-01-20T18:42:42.776Z,3.10
2024-01-20T18:45:12.837Z,3.10
2024-01-20T18:47:42.595Z,3.10
2024-01-20T18:50:11.453Z,3.00
2024-01-20T18:52:39.886Z,3.00
2024-01-20T18:55:08.656Z,3.00
2024-01-20T18:57:37.431Z,2.90
2024-01-20T19:00:09.592Z,2.80
2024-01-20T19:02:39.662Z,2.80
2024-01-20T19:05:08.265Z,2.80
2024-01-20T19:07:37.304Z,2.80
2024-01-20T19:10:10.808Z,2.80
2024-01-20T19:12:39.463Z,2.70
2024-01-20T19:15:09.797Z,2.70
2024-01-20T19:17:39.987Z,2.60
2024-01-20T19:20:10.585Z,2.60
2024-01-20T19:22:41.257Z,2.60
2024-01-20T19:25:11.553Z,2.50
2024-01-20T19:27:40.181Z,2.50
2024-01-20T19:30:09.887Z,2.40
2024-01-20T19:32:40.110Z,2.30
2024-01-20T19:35:10.967Z,2.30
2024-01-20T19:37:39.405Z,2.20
2024-01-20T19:40:11.116Z,2.20
2024-01-20T19:42:41.941Z,2.10
2024-01-20T19:45:10.761Z,2.00
2024-01-20T19:47:40.756Z,2.00
2024-01-20T19:50:10.353Z,2.00
2024-01-20T19:52:39.564Z,1.90
2024-01-20T19:55:09.271Z,1.90
2024-01-20T19:57:38.072Z,1.80
2024-01-20T20:00:10.786Z,1.80
2024-01-20T20:02:43.873Z,1.80
2024-01-20T20:05:12.486Z,1.70
2024-01-20T20:07:40.884Z,1.70
2024-01-20T20:10:09.841Z,1.60
2024-01-20T20:12:38.300Z,1.60
2024-01-20T20:15:07.849Z,1.50
2024-01-20T20:17:36.448Z,1.50
2024-01-20T20:20:07.256Z,1.40
2024-01-20T20:22:38.492Z,1.40
2024-01-20T20:25:07.278Z,1.30
2024-01-20T20:27:38.058Z,1.30
2024-01-20T20:30:09.657Z,1.30
2024-01-20T20:32:39.799Z,1.30
2024-01-20T20:35:13.040Z,1.30
2024-01-20T20:37:42.288Z,1.30
2024-01-20T20:40:12.002Z,1.20
2024-01-20T20:42:40.545Z,1.20
2024-01-20T20:45:09.944Z,1.20
2024-01-20T20:47:38.596Z,1.10
2024-01-20T20:50:08.001Z,1.10
2024-01-20T20:52:37.942Z,1.00
2024-01-20T20:55:07.766Z,1.00
2024-01-20T20:57:36.253Z,1.00
2024-01-20T21:00:06.135Z,1.00
2024-01-20T21:02:34.825Z,0.90
2024-01-20T21:05:03.476Z,0.90
2024-01-20T21:07:34.704Z,0.90
2024-01-20T21:10:04.551Z,0.90
2024-01-20T21:12:32.967Z,0.80
2024-01-20T21:15:01.482Z,0.80
2024-01-20T21:17:30.798Z,0.80
2024-01-20T21:19:59.357Z,0.70
2024-01-20T21:22:27.953Z,0.70
2024-01-20T21:24:56.456Z,0.70
2024-01-20T21:27:27.940Z,0.70
2024-01-20T21:29:56.429Z,0.60
2024-01-20T21:32:25.158Z,0.60
2024-01-20T21:34:53.640Z,0.60
2024-01-20T21:37:25.439Z,0.60
2024-01-20T21:39:53.906Z,0.60
2024-01-20T21:42:22.382Z,0.60
2024-01-20T21:44:54.207Z,0.60
2024-01-20T21:47:22.768Z,0.50
2024-01-20T21:49:51.224Z,0.50
2024-01-20T21:52:19.706Z,0.50
2024-01-20T21:54:48.205Z,0.50
2024-01-20T21:57:16.823Z,0.60
2024-01-20T21:59:45.278Z,0.50
2024-01-20T22:02:15.064Z,0.50
2024-01-20T22:04:45.975Z,0.50
2024-01-20T22:07:14.466Z,0.40
2024-01-20T22:09:42.956Z,0.30
2024-01-20T22:12:11.495Z,0.30
2024-01-20T22:14:39.932Z,0.40
2024-01-20T22:17:11.335Z,0.30
2024-01-20T22:19:41.277Z,0.30
2024-01-20T22:22:09.711Z,0.30
2024-01-20T22:24:38.201Z,0.30
2024-01-20T22:27:07.104Z,0.30
2024-01-20T22:29:37.856Z,0.30
2024-01-20T22:32:07.586Z,0.30
2024-01-20T22:34:38.564Z,0.20
2024-01-20T22:37:08.699Z,0.30
2024-01-20T22:39:37.135Z,0.30
2024-01-20T22:42:05.796Z,0.30
2024-01-20T22:44:36.609Z,0.30
2024-01-20T22:47:07.123Z,0.30
2024-01-20T22:49:35.641Z,0.30
2024-01-20T22:52:04.066Z,0.20
2024-01-20T22:54:34.638Z,0.20
2024-01-20T22:57:05.868Z,0.20
2024-01-20T22:59:34.625Z,0.20
2024-01-20T23:02:03.109Z,0.20
2024-01-20T23:04:31.651Z,0.20
2024-01-20T23:07:00.278Z,0.20
2024-01-20T23:09:28.822Z,0.20
2024-01-20T23:11:58.964Z,0.10
2024-01-20T23:14:38.017Z,0.10
2024-01-20T23:17:07.223Z,0.10
2024-01-20T23:19:35.854Z,0.10
2024-01-20T23:22:05.049Z,0.10
2024-01-20T23:24:33.547Z,0.10
2024-01-20T23:27:03.417Z,0.10
2024-01-20T23:29:32.102Z,0.20
2024-01-20T23:32:00.537Z,0.20
2024-01-20T23:34:29.103Z,0.20
2024-01-20T23:36:57.578Z,0.20
2024-01-20T23:39:26.077Z,0.20
2024-01-20T23:41:54.520Z,0.20
2024-01-20T23:44:24.480Z,0.20
2024-01-20T23:46:55.533Z,0.20
2024-01-20T23:49:24.223Z,0.20
2024-01-20T23:51:52.885Z,0.20
2024-01-20T23:54:21.400Z,0.20
2024-01-20T23:56:53.062Z,0.20
2024-01-20T23:59:21.439Z,0.20
